Time;durP1;ratioP1;P1;durP2;ratioP2;P2;SDS_P1;SDS_P2;PMS_P1;PMS_P2;Temp;Humidity;BMP_temperature;BMP_pressure;BME280_temperature;BME280_humidity;BME280_pressure;Samples;Min_cycle;Max_cycle;Signal;HPM_P1;HPM_P2
2023/09/14 00:03:42;;;;;;;8.10;3.20;;;;;;;15.59;100.00;101194.19;8374729;28;20116;-63
2023/09/14 00:07:43;;;;;;;12.90;2.90;;;;;;;15.76;100.00;101194.38;8374209;28;20043;-63
2023/09/14 00:11:43;;;;;;;7.55;3.08;;;;;;;15.95;100.00;101188.72;8373048;28;20401;-62
2023/09/14 00:15:44;;;;;;;7.90;2.50;;;;;;;15.89;100.00;101189.38;8376853;28;20095;-63
2023/09/14 00:19:44;;;;;;;6.93;2.90;;;;;;;15.81;100.00;101192.00;8375165;28;20389;-58
2023/09/14 00:23:45;;;;;;;12.05;3.28;;;;;;;15.84;100.00;101183.50;8407204;28;20122;-58
2023/09/14 00:27:46;;;;;;;7.10;2.88;;;;;;;15.73;100.00;101190.94;8373689;28;20041;-57
2023/09/14 00:31:47;;;;;;;6.63;3.25;;;;;;;15.63;100.00;101190.16;8374034;28;20037;-57
2023/09/14 00:35:47;;;;;;;10.07;3.30;;;;;;;15.61;100.00;101185.88;8375323;28;20041;-58
2023/09/14 00:39:48;;;;;;;9.32;3.08;;;;;;;15.31;100.00;101195.25;8371882;28;20129;-57
2023/09/14 00:43:48;;;;;;;5.72;3.40;;;;;;;15.28;100.00;101186.56;8373110;28;20075;-57
2023/09/14 00:47:51;;;;;;;6.15;3.80;;;;;;;15.47;100.00;101184.53;8375061;28;20068;-57
2023/09/14 00:51:53;;;;;;;9.83;3.57;;;;;;;15.63;100.00;101194.75;8374465;28;20067;-58
2023/09/14 00:55:54;;;;;;;7.05;3.47;;;;;;;15.61;100.00;101186.75;8373403;28;20704;-59
2023/09/14 00:59:55;;;;;;;6.95;3.33;;;;;;;15.58;100.00;101191.63;8371868;28;20040;-59
2023/09/14 01:03:55;;;;;;;7.03;3.80;;;;;;;15.55;100.00;101187.38;8373216;28;20502;-59
2023/09/14 01:07:56;;;;;;;5.63;3.85;;;;;;;15.61;100.00;101186.75;8374390;28;20072;-59
2023/09/14 01:11:57;;;;;;;9.50;3.80;;;;;;;15.59;100.00;101187.91;8372278;28;20037;-59
2023/09/14 01:16:07;;;;;;;4.60;2.90;;;;;;;15.39;100.00;101184.50;8375996;28;20091;-59
2023/09/14 01:20:39;;;;;;;6.07;3.17;;;;;;;15.04;100.00;101187.13;8370425;28;20057;-65
2023/09/14 01:25:19;;;;;;;6.80;3.50;;;;;;;15.07;100.00;101192.25;8369690;28;20319;-67
2023/09/14 01:29:20;;;;;;;11.73;3.47;;;;;;;14.95;100.00;101192.66;8368948;28;20048;-66
2023/09/14 01:33:24;;;;;;;7.63;3.17;;;;;;;14.95;100.00;101196.19;8373146;28;20123;-66
2023/09/14 01:37:26;;;;;;;7.97;3.35;;;;;;;15.13;100.00;101202.53;8372641;28;20251;-66
2023/09/14 01:41:28;;;;;;;5.55;3.10;;;;;;;15.13;100.00;101197.09;8372454;28;20427;-66
2023/09/14 01:45:31;;;;;;;8.15;3.25;;;;;;;15.05;100.00;101198.88;8373097;28;20041;-65
2023/09/14 01:49:31;;;;;;;7.57;3.40;;;;;;;14.71;100.00;101193.19;8375372;28;20047;-66
2023/09/14 01:53:32;;;;;;;9.02;3.60;;;;;;;14.89;100.00;101199.56;8371271;28;20036;-66
2023/09/14 01:57:32;;;;;;;5.65;3.13;;;;;;;14.98;100.00;101193.19;8405999;28;20032;-67
2023/09/14 02:01:33;;;;;;;6.28;3.33;;;;;;;14.89;100.00;101194.13;8371746;28;20043;-65
2023/09/14 02:05:34;;;;;;;5.15;3.45;;;;;;;14.81;100.00;101202.19;8372777;28;20040;-66
2023/09/14 02:09:35;;;;;;;4.13;3.33;;;;;;;14.81;100.00;101202.19;8370550;28;20033;-66
2023/09/14 02:13:37;;;;;;;5.30;2.97;;;;;;;14.70;100.00;101196.91;8373898;28;20044;-67
2023/09/14 02:17:38;;;;;;;8.70;3.75;;;;;;;14.83;100.00;101200.16;8374092;28;20411;-66
2023/09/14 02:21:38;;;;;;;6.35;3.03;;;;;;;14.97;100.00;101202.38;8378807;28;20041;-65
2023/09/14 02:25:42;;;;;;;6.55;3.15;;;;;;;14.69;100.00;101203.38;8379540;28;20041;-66
2023/09/14 02:29:43;;;;;;;4.55;2.85;;;;;;;14.75;100.00;101208.22;8379042;28;20082;-66
2023/09/14 02:33:43;;;;;;;5.03;3.35;;;;;;;14.50;100.00;101213.47;8378555;28;20041;-57
2023/09/14 02:37:44;;;;;;;5.85;2.97;;;;;;;14.40;100.00;101218.97;8378072;28;20481;-58
2023/09/14 02:41:45;;;;;;;5.25;2.85;;;;;;;14.16;100.00;101218.56;8377884;28;20056;-57
2023/09/14 02:45:45;;;;;;;7.43;3.38;;;;;;;14.19;100.00;101218.28;8380003;28;20040;-58
2023/09/14 02:49:47;;;;;;;4.57;3.35;;;;;;;14.37;100.00;101218.41;8379900;28;20033;-58
2023/09/14 02:53:47;;;;;;;7.65;3.45;;;;;;;14.67;100.00;101210.81;8378114;28;20048;-59
2023/09/14 02:57:48;;;;;;;7.95;3.17;;;;;;;14.67;100.00;101208.09;8373679;28;20044;-58
2023/09/14 03:01:49;;;;;;;18.48;3.08;;;;;;;14.18;100.00;101218.41;8368992;28;20083;-56
2023/09/14 03:05:50;;;;;;;6.10;3.10;;;;;;;14.22;100.00;101220.69;8377216;28;20028;-58
2023/09/14 03:09:51;;;;;;;4.32;2.67;;;;;;;14.04;100.00;101221.59;8376231;28;20045;-58
2023/09/14 03:13:53;;;;;;;6.43;3.58;;;;;;;14.22;100.00;101220.69;8379644;28;20082;-57
2023/09/14 03:17:53;;;;;;;6.60;3.15;;;;;;;14.06;100.00;101220.44;8377857;28;20089;-57
2023/09/14 03:21:55;;;;;;;7.90;3.72;;;;;;;14.27;100.00;101223.84;8379502;28;20098;-59
2023/09/14 03:25:56;;;;;;;7.50;3.92;;;;;;;14.25;100.00;101214.13;8375115;28;20041;-59
2023/09/14 03:29:58;;;;;;;5.70;3.00;;;;;;;13.97;100.00;101215.88;8377251;28;20059;-58
2023/09/14 03:33:58;;;;;;;6.13;3.38;;;;;;;13.88;100.00;101214.88;8411424;28;20402;-58
2023/09/14 03:38:00;;;;;;;6.95;3.20;;;;;;;13.87;100.00;101208.75;8378910;28;20060;-58
2023/09/14 03:42:01;;;;;;;5.75;3.20;;;;;;;13.71;100.00;101220.19;8372649;28;20064;-66
2023/09/14 03:46:03;;;;;;;8.23;3.85;;;;;;;13.65;100.00;101220.75;8378204;28;20036;-66
2023/09/14 03:50:05;;;;;;;5.47;3.25;;;;;;;13.62;100.00;101216.47;8376420;28;20033;-67
2023/09/14 03:54:05;;;;;;;7.25;3.72;;;;;;;13.70;100.00;101218.47;8377261;28;20131;-67
2023/09/14 03:58:06;;;;;;;8.73;4.30;;;;;;;13.36;100.00;101215.31;8377801;28;20090;-67
2023/09/14 04:02:08;;;;;;;8.07;4.72;;;;;;;13.44;100.00;101211.88;8372093;28;20041;-66
2023/09/14 04:06:09;;;;;;;8.88;4.38;;;;;;;13.55;100.00;101214.47;8377570;28;20091;-67
2023/09/14 04:10:10;;;;;;;12.30;5.75;;;;;;;13.40;100.00;101216.75;8374287;28;20491;-66
2023/09/14 04:14:11;;;;;;;11.80;5.60;;;;;;;13.37;100.00;101216.19;8377495;28;20094;-59
2023/09/14 04:18:11;;;;;;;11.15;5.43;;;;;;;13.21;100.00;101211.28;8376197;28;20036;-58
2023/09/14 04:22:12;;;;;;;21.48;5.72;;;;;;;13.34;100.00;101206.47;8377414;28;20418;-58
2023/09/14 04:26:12;;;;;;;13.60;5.63;;;;;;;13.29;100.00;101214.16;8374539;28;20409;-58
2023/09/14 04:30:14;;;;;;;13.85;6.50;;;;;;;13.30;100.00;101215.03;8372870;28;20037;-57
2023/09/14 04:34:14;;;;;;;11.30;5.43;;;;;;;13.24;100.00;101215.59;8377304;28;20036;-56
2023/09/14 04:38:15;;;;;;;16.25;6.32;;;;;;;13.29;100.00;101219.59;8367100;28;20041;-58
2023/09/14 04:42:17;;;;;;;9.65;5.68;;;;;;;13.11;100.00;101217.69;8355411;28;20041;-58
2023/09/14 04:46:18;;;;;;;15.70;5.82;;;;;;;13.20;100.00;101216.84;8367420;28;20120;-58
2023/09/14 04:50:18;;;;;;;10.02;5.20;;;;;;;13.13;100.00;101226.56;8369107;28;20502;-58
2023/09/14 04:54:20;;;;;;;12.35;4.95;;;;;;;13.02;100.00;101227.53;8370900;28;20510;-59
2023/09/14 04:58:20;;;;;;;11.40;5.55;;;;;;;13.00;100.00;101229.56;8372223;28;20411;-59
2023/09/14 05:02:21;;;;;;;15.32;6.20;;;;;;;13.03;100.00;101226.56;8373990;28;20085;-59
2023/09/14 05:06:21;;;;;;;10.02;5.55;;;;;;;13.14;100.00;101223.72;8372066;28;20042;-58
2023/09/14 05:10:22;;;;;;;12.63;6.30;;;;;;;13.21;100.00;101218.59;8368829;28;20041;-59
2023/09/14 05:14:24;;;;;;;15.73;6.20;;;;;;;13.14;100.00;101233.69;8373791;28;20423;-58
2023/09/14 05:18:25;;;;;;;17.15;5.80;;;;;;;13.15;100.00;101227.28;8372019;28;20067;-60
2023/09/14 05:22:28;;;;;;;14.13;5.88;;;;;;;13.11;100.00;101231.25;8375510;28;20494;-59
2023/09/14 05:26:28;;;;;;;19.02;6.63;;;;;;;13.10;100.00;101224.13;8373265;28;20036;-59
2023/09/14 05:30:29;;;;;;;19.40;5.90;;;;;;;13.14;100.00;101225.56;8370964;28;20087;-59
2023/09/14 05:34:30;;;;;;;14.75;6.72;;;;;;;13.17;100.00;101241.56;8375130;28;20039;-57
2023/09/14 05:38:30;;;;;;;13.63;7.45;;;;;;;13.45;100.00;101240.78;8368780;28;20063;-59
2023/09/14 05:42:31;;;;;;;18.35;7.65;;;;;;;13.47;100.00;101238.75;8371598;28;20040;-58
2023/09/14 05:46:32;;;;;;;21.75;7.50;;;;;;;13.45;100.00;101240.78;8353475;28;20383;-59
2023/09/14 05:50:35;;;;;;;18.98;7.28;;;;;;;13.49;100.00;101240.34;8367761;28;20036;-60
2023/09/14 05:54:36;;;;;;;15.80;8.05;;;;;;;13.51;100.00;101246.50;8372772;28;20036;-57
2023/09/14 05:58:36;;;;;;;16.88;7.78;;;;;;;13.53;100.00;101241.78;8369707;28;20567;-59
2023/09/14 06:02:40;;;;;;;11.50;6.80;;;;;;;13.61;100.00;101241.06;8366639;28;20044;-62
2023/09/14 06:06:43;;;;;;;18.48;8.73;;;;;;;13.75;100.00;101246.94;8367573;28;20106;-62
2023/09/14 06:10:43;;;;;;;20.05;9.13;;;;;;;13.86;100.00;101245.94;8371639;28;20045;-62
2023/09/14 06:14:44;;;;;;;24.75;10.38;;;;;;;14.03;100.00;101253.34;8368258;28;20102;-62
2023/09/14 06:18:46;;;;;;;20.35;9.35;;;;;;;14.10;100.00;101257.22;8373216;28;20532;-62
2023/09/14 06:22:47;;;;;;;19.65;9.73;;;;;;;14.30;100.00;101267.06;8373644;28;20055;-62
2023/09/14 06:26:48;;;;;;;22.85;10.48;;;;;;;14.42;100.00;101270.53;8371711;28;20040;-63
2023/09/14 06:30:48;;;;;;;25.48;10.18;;;;;;;14.57;100.00;101269.88;8368129;28;20051;-63
2023/09/14 06:34:49;;;;;;;24.83;11.38;;;;;;;14.75;100.00;101272.69;8373575;28;20498;-60
2023/09/14 06:38:49;;;;;;;23.42;10.90;;;;;;;14.88;100.00;101279.50;8367853;28;20190;-61
2023/09/14 06:42:50;;;;;;;22.65;10.93;;;;;;;14.96;100.00;101282.34;8370688;28;20048;-56
2023/09/14 06:46:51;;;;;;;19.23;10.23;;;;;;;14.99;100.00;101290.22;8371901;28;20608;-57
2023/09/14 06:50:52;;;;;;;19.70;9.80;;;;;;;14.97;100.00;101284.06;8367625;28;20041;-57
2023/09/14 06:54:52;;;;;;;18.35;10.88;;;;;;;14.95;100.00;101280.63;8368464;28;20053;-60
2023/09/14 06:58:52;;;;;;;20.45;9.82;;;;;;;14.99;100.00;101286.63;8369830;28;20063;-62
2023/09/14 07:02:53;;;;;;;22.55;11.93;;;;;;;15.17;100.00;101291.16;8369799;28;20063;-58
2023/09/14 07:06:54;;;;;;;21.67;10.27;;;;;;;15.35;100.00;101289.31;8374130;28;20044;-58
2023/09/14 07:10:55;;;;;;;23.00;11.30;;;;;;;15.50;100.00;101293.25;8375381;28;20037;-59
2023/09/14 07:14:55;;;;;;;20.08;11.75;;;;;;;15.69;100.00;101301.31;8378798;28;20037;-62
2023/09/14 07:18:55;;;;;;;22.90;11.30;;;;;;;15.69;100.00;101292.28;8374785;28;20032;-61
2023/09/14 07:22:57;;;;;;;20.02;10.02;;;;;;;15.83;100.00;101297.22;8376000;28;20600;-58
2023/09/14 07:26:57;;;;;;;25.45;11.68;;;;;;;16.34;100.00;101290.97;8374865;28;20426;-56
2023/09/14 07:31:03;;;;;;;24.50;11.57;;;;;;;16.79;100.00;101289.81;8375271;28;20067;-57
2023/09/14 07:35:04;;;;;;;23.73;10.93;;;;;;;17.08;100.00;101289.47;8377065;28;20486;-60
2023/09/14 07:39:05;;;;;;;21.98;11.10;;;;;;;17.48;100.00;101297.88;8373970;28;20033;-60
2023/09/14 07:43:05;;;;;;;27.48;11.95;;;;;;;17.31;100.00;101296.03;8377232;28;20133;-60
2023/09/14 07:47:06;;;;;;;26.67;12.25;;;;;;;17.63;100.00;101296.19;8372674;28;20128;-60
2023/09/14 07:51:06;;;;;;;29.38;13.52;;;;;;;17.79;100.00;101298.97;8377269;28;20037;-60
2023/09/14 07:55:07;;;;;;;25.52;12.98;;;;;;;18.13;100.00;101305.16;8374674;28;20043;-61
2023/09/14 07:59:07;;;;;;;25.80;12.85;;;;;;;18.29;100.00;101310.66;8377915;28;20032;-62
2023/09/14 08:03:09;;;;;;;30.35;12.80;;;;;;;18.48;100.00;101296.63;8370320;28;20047;-62
2023/09/14 08:07:09;;;;;;;27.05;13.15;;;;;;;18.34;99.83;101304.66;8373746;28;20120;-62
2023/09/14 08:11:11;;;;;;;33.72;14.32;;;;;;;18.55;100.00;101305.88;8371179;28;20045;-62
2023/09/14 08:15:12;;;;;;;31.17;13.25;;;;;;;18.60;100.00;101300.72;8375284;28;20126;-64
2023/09/14 08:19:12;;;;;;;34.88;16.42;;;;;;;18.73;100.00;101305.69;8373444;28;20028;-65
2023/09/14 08:23:15;;;;;;;45.42;19.63;;;;;;;18.74;100.00;101308.25;8375535;28;20045;-62
2023/09/14 08:27:16;;;;;;;43.35;17.85;;;;;;;18.93;99.88;101309.72;8373717;28;20437;-62
2023/09/14 08:31:17;;;;;;;38.97;17.67;;;;;;;18.71;100.00;101322.28;8367508;28;20033;-62
2023/09/14 08:35:24;;;;;;;44.50;18.42;;;;;;;18.74;100.00;101315.59;8374331;28;20033;-62
2023/09/14 08:39:25;;;;;;;44.55;19.58;;;;;;;18.71;100.00;101330.53;8367324;28;20047;-62
2023/09/14 08:43:25;;;;;;;42.05;18.88;;;;;;;18.95;99.28;101332.34;8372358;28;20040;-58
2023/09/14 08:47:26;;;;;;;47.22;21.50;;;;;;;18.75;99.82;101329.13;8372305;28;20064;-58
2023/09/14 08:51:29;;;;;;;49.45;20.38;;;;;;;18.76;100.00;101325.34;8374317;28;20043;-58
2023/09/14 08:55:34;;;;;;;53.20;21.27;;;;;;;19.07;100.00;101326.34;8370959;28;20028;-57
2023/09/14 08:59:35;;;;;;;45.10;22.00;;;;;;;19.70;98.67;101319.94;8367524;28;20403;-58
2023/09/14 09:03:36;;;;;;;46.05;21.23;;;;;;;19.09;98.24;101318.78;8368128;28;20067;-57
2023/09/14 09:07:39;;;;;;;45.20;20.83;;;;;;;19.25;98.76;101315.13;8371933;28;20408;-58
2023/09/14 09:11:40;;;;;;;39.17;19.73;;;;;;;19.71;99.97;101321.63;8371328;28;20499;-57
2023/09/14 09:15:40;;;;;;;39.47;20.35;;;;;;;20.04;94.55;101310.28;8373652;28;20411;-64
2023/09/14 09:19:51;;;;;;;44.25;21.17;;;;;;;19.85;95.27;101320.88;8371442;28;20060;-64
2023/09/14 09:23:52;;;;;;;42.42;22.25;;;;;;;20.75;93.52;101318.09;8367043;28;20071;-62
2023/09/14 09:27:57;;;;;;;39.03;19.98;;;;;;;21.64;86.43;101310.53;8370717;28;20037;-62
2023/09/14 09:31:58;;;;;;;34.63;19.40;;;;;;;22.68;80.45;101311.69;8368917;28;20037;-62
2023/09/14 09:36:00;;;;;;;34.47;18.30;;;;;;;23.62;75.93;101310.19;8370316;28;20065;-62
2023/09/14 09:40:00;;;;;;;36.60;18.52;;;;;;;24.66;72.55;101307.72;8369858;28;20039;-62
2023/09/14 09:44:09;;;;;;;40.95;20.40;;;;;;;24.30;73.12;101310.84;8372697;28;20057;-62
2023/09/14 09:48:11;;;;;;;35.72;18.10;;;;;;;25.38;69.44;101300.19;8369876;28;20043;-62
2023/09/14 09:52:12;;;;;;;27.98;15.95;;;;;;;26.21;66.02;101300.03;8371985;28;20526;-60
2023/09/14 09:56:23;;;;;;;28.60;15.10;;;;;;;26.02;65.44;101303.78;8372203;28;20406;-58
2023/09/14 10:00:31;;;;;;;27.38;15.15;;;;;;;25.97;64.92;101298.00;8368049;28;20098;-59
2023/09/14 10:04:31;;;;;;;28.25;14.85;;;;;;;26.20;63.63;101295.53;8370090;28;20116;-58
2023/09/14 10:08:32;;;;;;;23.10;12.23;;;;;;;26.62;62.74;101300.38;8370463;28;20033;-58
2023/09/14 10:12:38;;;;;;;25.83;13.25;;;;;;;26.85;63.27;101283.09;8369910;28;20037;-59
2023/09/14 10:16:41;;;;;;;19.58;11.43;;;;;;;25.92;62.89;101291.44;8370615;28;20041;-62
2023/09/14 10:20:43;;;;;;;12.73;6.47;;;;;;;27.35;58.98;101275.56;8372282;28;20131;-62
2023/09/14 10:24:45;;;;;;;13.77;7.35;;;;;;;27.25;58.27;101289.09;8369987;28;20098;-62
2023/09/14 10:28:46;;;;;;;8.15;5.75;;;;;;;27.08;56.84;101283.28;8369989;28;20080;-62
2023/09/14 10:32:49;;;;;;;6.45;3.80;;;;;;;27.33;55.25;101286.03;8369392;28;20037;-62
2023/09/14 10:36:51;;;;;;;7.93;4.47;;;;;;;26.48;57.66;101282.13;8371785;28;20449;-65
2023/09/14 10:40:53;;;;;;;7.57;5.03;;;;;;;26.53;58.77;101279.50;8372633;28;20041;-65
2023/09/14 10:44:54;;;;;;;7.05;4.97;;;;;;;26.11;58.70;101280.25;8377064;28;20513;-64
2023/09/14 10:48:57;;;;;;;7.80;4.38;;;;;;;26.61;57.06;101275.59;8375743;28;20457;-64
2023/09/14 10:52:57;;;;;;;5.43;2.90;;;;;;;28.15;52.83;101275.97;8369066;28;20033;-64
2023/09/14 10:57:00;;;;;;;5.78;3.00;;;;;;;29.38;52.02;101260.97;8370940;28;20331;-64
2023/09/14 11:01:00;;;;;;;7.18;3.45;;;;;;;27.90;53.24;101272.47;8374477;28;20509;-64
2023/09/14 11:05:18;;;;;;;4.38;3.30;;;;;;;28.05;53.33;101264.56;8373628;28;20167;-63
2023/09/14 11:09:20;;;;;;;4.60;3.28;;;;;;;28.87;51.46;101258.09;8372676;28;20453;-64
2023/09/14 11:13:24;;;;;;;5.03;3.00;;;;;;;29.04;50.00;101256.31;8376039;28;20037;-64
2023/09/14 11:17:26;;;;;;;;;;;;;;;28.97;49.60;101258.31;8373166;28;20461;-63
2023/09/14 11:25:49;;;;;;;4.10;2.75;;;;;;;28.58;51.61;101253.47;8345531;27;20400;-59
2023/09/14 11:29:50;;;;;;;4.57;3.20;;;;;;;29.20;52.20;101246.34;8369270;28;20117;-59
2023/09/14 11:33:50;;;;;;;4.95;2.30;;;;;;;29.57;47.59;101242.97;8347650;28;20033;-58
2023/09/14 11:37:51;;;;;;;2.95;1.85;;;;;;;29.38;47.80;101227.53;8348262;28;20158;-58
2023/09/14 11:46:05;;;;;;;5.63;2.15;;;;;;;29.71;46.61;101236.06;8395284;27;20942;-62
2023/09/14 11:50:08;;;;;;;2.78;1.73;;;;;;;28.66;47.23;101236.41;8381928;27;20067;-64
2023/09/14 11:54:10;;;;;;;2.38;1.75;;;;;;;29.30;47.91;101225.13;8381346;27;20037;-64
2023/09/14 11:58:12;;;;;;;2.38;1.42;;;;;;;29.87;46.88;101226.91;8381987;27;20398;-64
2023/09/14 12:02:13;;;;;;;2.92;1.40;;;;;;;30.06;47.38;101220.00;8379690;27;20414;-64
2023/09/14 12:06:14;;;;;;;3.88;1.60;;;;;;;30.46;46.20;101221.84;8379992;27;20044;-63
2023/09/14 12:10:19;;;;;;;4.57;1.88;;;;;;;29.84;46.56;101209.81;8382381;27;20047;-64
2023/09/14 12:14:19;;;;;;;2.65;2.20;;;;;;;28.38;48.99;101211.19;8379242;27;20036;-64
2023/09/14 12:18:20;;;;;;;2.47;1.88;;;;;;;29.15;47.78;101210.03;8376633;28;20106;-64
2023/09/14 12:22:21;;;;;;;4.70;2.08;;;;;;;28.63;48.73;101207.13;8383853;28;20041;-64
2023/09/14 12:26:22;;;;;;;2.42;1.90;;;;;;;28.06;49.24;101204.25;8381031;27;20051;-63
2023/09/14 12:30:23;;;;;;;2.75;1.52;;;;;;;29.04;48.52;101203.38;8377987;28;20047;-64
2023/09/14 12:34:24;;;;;;;3.55;1.80;;;;;;;28.12;49.50;101203.28;8375972;27;20128;-60
2023/09/14 12:38:30;;;;;;;2.85;1.90;;;;;;;26.95;51.53;101199.31;8380249;28;20384;-59
2023/09/14 12:42:30;;;;;;;5.35;2.05;;;;;;;25.29;55.74;101193.47;8376992;27;20110;-59
2023/09/14 12:46:31;;;;;;;2.83;1.88;;;;;;;24.85;55.83;101198.94;8377808;27;20118;-59
2023/09/14 12:50:34;;;;;;;3.78;2.08;;;;;;;24.65;58.91;101192.63;8377504;27;20091;-59
2023/09/14 12:54:34;;;;;;;4.78;1.70;;;;;;;25.33;55.55;101186.47;8372985;27;20136;-62
2023/09/14 12:58:35;;;;;;;3.33;1.67;;;;;;;24.91;55.41;101181.47;8356195;28;20040;-62
2023/09/14 13:02:35;;;;;;;3.63;2.30;;;;;;;24.58;56.23;101173.22;8354033;28;20074;-62
2023/09/14 13:06:36;;;;;;;3.53;2.38;;;;;;;24.66;58.70;101161.97;8386440;28;20037;-62
2023/09/14 13:10:39;;;;;;;4.72;2.25;;;;;;;24.51;57.98;101157.72;8353324;28;20052;-62
2023/09/14 13:14:43;;;;;;;2.63;1.75;;;;;;;24.67;57.79;101157.31;8355968;28;20044;-58
2023/09/14 13:18:44;;;;;;;3.60;1.85;;;;;;;24.50;60.04;101167.09;8355158;28;20046;-59
2023/09/14 13:22:44;;;;;;;6.25;2.38;;;;;;;23.98;59.70;101167.13;8352951;28;20037;-58
2023/09/14 13:26:45;;;;;;;2.40;2.20;;;;;;;23.66;59.33;101154.09;8354576;28;20041;-58
2023/09/14 13:30:45;;;;;;;6.50;2.55;;;;;;;23.47;58.96;101163.16;8355153;28;20056;-58
2023/09/14 13:34:46;;;;;;;4.28;2.30;;;;;;;23.46;59.77;101158.72;8358622;28;20033;-60
2023/09/14 13:38:46;;;;;;;4.57;2.45;;;;;;;23.51;60.13;101150.66;8355210;28;20044;-59
2023/09/14 13:42:51;;;;;;;4.75;2.25;;;;;;;23.56;59.76;101139.81;8350393;28;20065;-60
2023/09/14 13:46:52;;;;;;;4.65;2.70;;;;;;;23.34;59.62;101138.28;8351825;28;20037;-60
2023/09/14 13:50:52;;;;;;;6.93;2.58;;;;;;;23.40;61.15;101129.19;8355619;28;20047;-59
2023/09/14 13:54:53;;;;;;;4.90;2.50;;;;;;;23.57;61.54;101116.69;8338634;28;20099;-59
2023/09/14 13:58:54;;;;;;;5.93;3.35;;;;;;;23.19;63.17;101122.75;8338433;28;20033;-60
2023/09/14 14:03:07;;;;;;;7.68;3.65;;;;;;;22.78;63.05;101123.84;8335849;28;20043;-59
2023/09/14 14:07:09;;;;;;;7.00;3.83;;;;;;;22.94;63.66;101118.81;8343526;28;20082;-59
2023/09/14 14:11:10;;;;;;;7.85;3.80;;;;;;;23.17;64.62;101123.97;8351457;28;20049;-58
2023/09/14 14:15:10;;;;;;;8.90;3.60;;;;;;;23.17;64.14;101119.31;8354396;28;20075;-59
2023/09/14 14:19:12;;;;;;;8.80;3.80;;;;;;;23.19;61.69;101111.72;8375726;28;20521;-58
2023/09/14 14:23:13;;;;;;;9.25;3.17;;;;;;;23.08;62.59;101109.53;8356625;28;20032;-58
2023/09/14 14:27:15;;;;;;;10.02;4.32;;;;;;;23.08;62.76;101115.06;8351420;28;20525;-59
2023/09/14 14:31:15;;;;;;;8.60;4.38;;;;;;;23.03;62.82;101102.94;8352529;28;20037;-58
2023/09/14 14:35:16;;;;;;;6.18;3.55;;;;;;;23.01;63.45;101108.66;8355324;28;20032;-60
2023/09/14 14:39:16;;;;;;;4.00;3.03;;;;;;;23.05;62.45;101104.44;8348475;28;20119;-58
2023/09/14 14:43:17;;;;;;;6.22;3.78;;;;;;;22.97;62.31;101096.31;8351126;28;20040;-59
2023/09/14 14:47:19;;;;;;;7.97;3.85;;;;;;;22.93;62.31;101100.56;8355534;28;20049;-58
2023/09/14 14:51:20;;;;;;;5.05;2.88;;;;;;;23.00;62.25;101104.19;8351603;28;20032;-59
2023/09/14 14:55:21;;;;;;;5.22;3.17;;;;;;;23.00;62.80;101095.91;8352951;28;20044;-57
2023/09/14 14:59:22;;;;;;;4.55;2.78;;;;;;;23.04;62.53;101097.22;8355601;28;20580;-58
2023/09/14 15:03:24;;;;;;;4.20;2.92;;;;;;;23.26;61.32;101089.66;8353803;28;20056;-58
2023/09/14 15:07:25;;;;;;;7.50;3.10;;;;;;;23.52;61.39;101091.63;8351161;28;20037;-59
2023/09/14 15:11:25;;;;;;;6.22;2.83;;;;;;;23.48;60.91;101099.47;8352364;28;20051;-60
2023/09/14 15:15:26;;;;;;;5.43;3.33;;;;;;;23.56;60.99;101092.88;8351308;28;20048;-59
2023/09/14 15:19:31;;;;;;;5.38;2.83;;;;;;;23.39;61.52;101094.38;8343371;28;20123;-59
2023/09/14 15:23:32;;;;;;;4.15;3.00;;;;;;;23.30;60.32;101090.97;8341550;28;20144;-59
2023/09/14 15:27:34;;;;;;;8.90;3.47;;;;;;;23.24;61.67;101086.28;8352025;28;20103;-58
2023/09/14 15:31:34;;;;;;;4.47;3.30;;;;;;;23.04;61.60;101086.19;8353530;28;20040;-58
2023/09/14 15:35:35;;;;;;;5.03;2.80;;;;;;;22.97;63.17;101085.28;8353135;28;20032;-59
2023/09/14 15:39:38;;;;;;;8.13;2.83;;;;;;;22.87;62.56;101090.34;8351178;28;20509;-59
2023/09/14 15:43:41;;;;;;;8.57;3.47;;;;;;;22.72;62.16;101073.09;8351388;28;20047;-58
2023/09/14 15:47:44;;;;;;;4.28;3.03;;;;;;;22.62;64.46;101069.03;8348494;28;20287;-57
2023/09/14 15:51:44;;;;;;;5.93;3.45;;;;;;;22.58;63.32;101079.63;8353842;28;20422;-60
2023/09/14 15:55:45;;;;;;;4.90;2.83;;;;;;;22.62;62.64;101080.91;8352484;28;20123;-59
2023/09/14 15:59:46;;;;;;;5.10;3.17;;;;;;;22.60;63.12;101076.69;8351660;28;20132;-59
2023/09/14 16:03:46;;;;;;;5.13;2.78;;;;;;;22.60;63.11;101072.00;8351453;28;20128;-59
2023/09/14 16:07:47;;;;;;;4.70;2.78;;;;;;;22.63;63.62;101066.06;8351895;28;20058;-57
2023/09/14 16:11:47;;;;;;;4.50;2.78;;;;;;;22.58;62.93;101059.47;8343386;28;20278;-58
2023/09/14 16:15:52;;;;;;;6.65;2.90;;;;;;;22.57;64.16;101066.88;8353542;28;20068;-60
2023/09/14 16:19:52;;;;;;;5.88;3.03;;;;;;;22.60;62.94;101058.22;8350353;28;20072;-59
2023/09/14 16:23:53;;;;;;;6.50;2.75;;;;;;;22.52;63.38;101068.56;8350292;28;20052;-60
2023/09/14 16:27:54;;;;;;;7.10;3.28;;;;;;;22.47;63.70;101060.00;8350480;28;20045;-65
2023/09/14 16:31:54;;;;;;;5.03;3.33;;;;;;;22.40;64.76;101054.50;8350765;28;20045;-65
2023/09/14 16:35:56;;;;;;;3.55;3.15;;;;;;;22.31;64.79;101058.47;8356523;28;20040;-63
2023/09/14 16:39:57;;;;;;;3.75;3.10;;;;;;;22.15;65.86;101049.69;8355668;28;20051;-65
2023/09/14 16:43:58;;;;;;;5.28;2.90;;;;;;;22.09;64.83;101050.47;8357739;28;20154;-65
2023/09/14 16:47:58;;;;;;;5.30;3.05;;;;;;;22.00;65.22;101052.56;8355497;28;20041;-65
2023/09/14 16:51:59;;;;;;;5.55;3.30;;;;;;;21.93;65.56;101035.16;8354680;28;20037;-65
2023/09/14 16:56:00;;;;;;;5.95;3.40;;;;;;;21.89;66.33;101036.56;8356593;28;20041;-65
2023/09/14 17:00:02;;;;;;;5.53;2.80;;;;;;;21.85;66.44;101038.03;8353738;28;20033;-65
2023/09/14 17:04:04;;;;;;;5.05;2.92;;;;;;;21.77;67.39;101029.09;8359360;28;20187;-65
2023/09/14 17:08:05;;;;;;;5.70;3.00;;;;;;;21.73;67.83;101034.09;8374413;28;20059;-65
2023/09/14 17:12:06;;;;;;;7.55;3.38;;;;;;;21.66;68.62;101037.84;8370553;28;20043;-65
2023/09/14 17:16:06;;;;;;;6.63;3.88;;;;;;;21.57;69.09;101034.41;8370908;28;20115;-65
2023/09/14 17:20:07;;;;;;;6.18;4.38;;;;;;;21.35;69.63;101028.06;8372079;28;20033;-65
2023/09/14 17:24:08;;;;;;;6.63;4.75;;;;;;;21.43;69.54;101027.06;8355025;28;20041;-65
2023/09/14 17:28:09;;;;;;;6.95;4.45;;;;;;;21.33;70.43;101032.06;8342536;28;20241;-60
2023/09/14 17:32:10;;;;;;;6.28;4.45;;;;;;;21.21;70.50;101039.13;8350038;28;20453;-60
2023/09/14 17:36:11;;;;;;;7.00;5.30;;;;;;;21.10;71.15;101037.75;8354877;28;20032;-59
2023/09/14 17:40:12;;;;;;;8.20;4.82;;;;;;;20.93;73.07;101035.44;8355064;28;20132;-59
2023/09/14 17:44:12;;;;;;;8.00;5.22;;;;;;;20.81;73.79;101042.47;8355598;28;20346;-58
2023/09/14 17:48:14;;;;;;;7.07;4.72;;;;;;;20.66;75.58;101044.41;8356565;28;20037;-59
2023/09/14 17:52:15;;;;;;;11.10;4.78;;;;;;;20.41;76.58;101040.28;8357454;28;20250;-58
2023/09/14 17:56:16;;;;;;;9.07;4.95;;;;;;;20.39;75.55;101042.38;8377294;28;20040;-59
2023/09/14 18:00:16;;;;;;;7.47;4.85;;;;;;;20.20;77.48;101048.44;8354711;28;20079;-58
2023/09/14 18:04:17;;;;;;;7.53;6.00;;;;;;;20.05;77.14;101053.03;8357530;28;20034;-58
2023/09/14 18:08:19;;;;;;;7.72;6.20;;;;;;;19.95;76.99;101050.59;8354606;28;20048;-57
2023/09/14 18:12:19;;;;;;;12.07;6.15;;;;;;;19.83;78.18;101053.97;8352717;28;20047;-60
2023/09/14 18:16:22;;;;;;;8.50;5.75;;;;;;;19.56;80.68;101054.56;8353987;28;20036;-64
2023/09/14 18:20:22;;;;;;;8.73;6.05;;;;;;;19.17;83.18;101055.56;8355241;28;20045;-66
2023/09/14 18:24:23;;;;;;;9.10;6.05;;;;;;;19.23;81.93;101054.84;8354712;28;20637;-66
2023/09/14 18:28:26;;;;;;;7.68;5.75;;;;;;;19.06;83.30;101057.88;8353629;28;20462;-60
2023/09/14 18:32:27;;;;;;;10.77;7.30;;;;;;;19.00;83.92;101070.41;8353720;28;20079;-60
2023/09/14 18:36:27;;;;;;;11.25;6.75;;;;;;;19.09;83.42;101074.81;8343512;28;20041;-65
2023/09/14 18:40:28;;;;;;;10.27;6.82;;;;;;;18.97;84.53;101070.75;8353449;28;20036;-65